Time;durP1;ratioP1;P1;durP2;ratioP2;P2;SDS_P1;SDS_P2;PMS_P1;PMS_P2;Temp;Humidity;BMP_temperature;BMP_pressure;BME280_temperature;BME280_humidity;BME280_pressure;Samples;Min_cycle;Max_cycle;Signal;HPM_P1;HPM_P2
2023/09/11 00:00:08;;;;;;;34.15;24.50;;;;;;;22.47;100.00;101346.84;5022504;28;20041;-90
2023/09/11 00:02:34;;;;;;;35.60;25.92;;;;;;;22.45;100.00;101348.91;5003701;28;20076;-88
2023/09/11 00:04:59;;;;;;;32.60;25.30;;;;;;;22.33;100.00;101339.31;5022604;28;20042;-90
2023/09/11 00:07:26;;;;;;;31.50;26.52;;;;;;;22.31;100.00;101338.63;5022107;28;20038;-88
2023/09/11 00:09:51;;;;;;;40.78;26.38;;;;;;;22.28;100.00;101338.94;5016971;28;20035;-88
2023/09/11 00:12:18;;;;;;;30.75;24.88;;;;;;;22.28;100.00;101330.78;5027248;28;20041;-87
2023/09/11 00:14:47;;;;;;;33.22;26.40;;;;;;;22.23;100.00;101333.97;5003067;28;20123;-88
2023/09/11 00:17:13;;;;;;;39.00;25.48;;;;;;;22.17;100.00;101327.34;5042151;28;20061;-91
2023/09/11 00:19:39;;;;;;;33.60;26.30;;;;;;;22.21;100.00;101330.59;5006067;28;20065;-87
2023/09/11 00:22:04;;;;;;;33.35;25.42;;;;;;;22.15;100.00;101329.38;5042014;28;20041;-87
2023/09/11 00:24:31;;;;;;;35.85;27.48;;;;;;;22.11;100.00;101327.13;5024084;28;20120;-90
2023/09/11 00:26:57;;;;;;;40.70;27.80;;;;;;;22.13;100.00;101325.09;5007180;28;20894;-89
2023/09/11 00:29:24;;;;;;;40.42;27.02;;;;;;;22.07;100.00;101323.84;5008622;28;20218;-86
2023/09/11 00:31:49;;;;;;;33.95;25.50;;;;;;;22.10;100.00;101333.56;5010464;28;20038;-89
2023/09/11 00:34:15;;;;;;;34.60;26.02;;;;;;;22.05;100.00;101319.59;5024790;28;20048;-87
2023/09/11 00:36:41;;;;;;;40.75;28.92;;;;;;;22.06;100.00;101324.88;5022080;28;20127;-90
2023/09/11 00:39:07;;;;;;;39.78;27.95;;;;;;;22.01;100.00;101329.06;5026497;28;20151;-89
2023/09/11 00:41:32;;;;;;;33.35;26.92;;;;;;;22.02;100.00;101325.34;5045301;28;20037;-86
2023/09/11 00:43:58;;;;;;;32.78;26.48;;;;;;;21.98;100.00;101327.53;5028178;28;20064;-88
2023/09/11 00:46:24;;;;;;;44.58;30.67;;;;;;;21.99;100.00;101334.69;5016507;28;20047;-90
2023/09/11 00:48:57;;;;;;;39.35;27.92;;;;;;;21.94;100.00;101326.16;5046579;28;20056;-87
2023/09/11 00:51:24;;;;;;;37.58;29.25;;;;;;;21.87;100.00;101325.91;5027889;28;20037;-86
2023/09/11 00:53:51;;;;;;;44.13;30.92;;;;;;;21.90;100.00;101320.19;5013869;28;20041;-89
2023/09/11 00:56:17;;;;;;;36.15;27.65;;;;;;;21.82;100.00;101319.25;5049265;28;20060;-87
2023/09/11 00:58:43;;;;;;;37.67;26.70;;;;;;;21.79;100.00;101316.84;5028542;28;20124;-87
2023/09/11 01:01:10;;;;;;;41.58;28.23;;;;;;;21.73;100.00;101312.91;5013411;28;20064;-91
2023/09/11 01:03:37;;;;;;;33.78;26.77;;;;;;;21.72;100.00;101309.34;5013671;28;20030;-90
2023/09/11 01:06:02;;;;;;;44.25;31.85;;;;;;;21.73;100.00;101312.91;5006358;28;20042;-90
2023/09/11 01:08:28;;;;;;;39.95;27.02;;;;;;;21.71;100.00;101307.66;5032892;28;21109;-88
2023/09/11 01:10:56;;;;;;;39.20;26.17;;;;;;;21.67;100.00;101303.53;5034160;28;20483;-87
2023/09/11 01:13:24;;;;;;;37.22;27.95;;;;;;;21.66;100.00;101303.72;5033698;28;20714;-87
2023/09/11 01:16:17;;;;;;;37.08;27.58;;;;;;;21.59;100.00;101303.50;5043159;28;20664;-90
2023/09/11 01:18:54;;;;;;;33.95;24.00;;;;;;;21.59;100.00;101303.50;5013506;28;20071;-90
2023/09/11 01:21:31;;;;;;;30.98;25.00;;;;;;;21.57;100.00;101293.78;5007941;28;20038;-88
2023/09/11 01:24:19;;;;;;;38.78;26.52;;;;;;;21.49;100.00;101300.03;5022635;28;20138;-88
2023/09/11 01:26:54;;;;;;;37.55;27.42;;;;;;;21.44;100.00;101296.94;4993043;28;20127;-87
2023/09/11 01:29:22;;;;;;;42.05;29.30;;;;;;;21.47;100.00;101304.75;4989481;28;20085;-87
2023/09/11 01:31:49;;;;;;;33.63;25.45;;;;;;;21.44;100.00;101292.34;4987813;28;20030;-86
2023/09/11 01:34:15;;;;;;;33.20;24.60;;;;;;;21.40;100.00;101300.97;5004153;28;20156;-87
2023/09/11 01:36:41;;;;;;;38.90;30.00;;;;;;;21.45;100.00;101293.22;5030883;28;20073;-86
2023/09/11 01:39:06;;;;;;;37.70;22.88;;;;;;;21.35;100.00;101293.28;5014971;28;20050;-89
2023/09/11 01:41:32;;;;;;;43.45;27.02;;;;;;;21.39;100.00;101291.97;4997971;28;20125;-88
2023/09/11 01:44:03;;;;;;;30.92;25.88;;;;;;;21.33;100.00;101286.31;5010616;28;20046;-90
2023/09/11 01:46:30;;;;;;;33.20;26.13;;;;;;;21.30;100.00;101287.47;5014640;28;20052;-86
2023/09/11 01:48:58;;;;;;;34.97;23.77;;;;;;;21.23;100.00;101291.78;5028506;28;20131;-86
2023/09/11 01:51:29;;;;;;;38.50;28.63;;;;;;;21.21;100.00;101289.22;5007860;28;20133;-86
2023/09/11 01:53:57;;;;;;;43.63;27.60;;;;;;;21.21;100.00;101288.38;5034872;28;20041;-89
2023/09/11 01:56:23;;;;;;;38.83;26.80;;;;;;;21.21;100.00;101283.81;5036929;28;20029;-88
2023/09/11 01:58:50;;;;;;;34.72;25.20;;;;;;;21.26;100.00;101291.47;4997453;28;21049;-87
2023/09/11 02:01:15;;;;;;;40.30;30.20;;;;;;;21.25;100.00;101291.63;5019103;28;20060;-86
2023/09/11 02:03:41;;;;;;;38.25;28.70;;;;;;;21.30;100.00;101294.75;5003194;28;20034;-87
2023/09/11 02:06:07;;;;;;;43.53;24.17;;;;;;;21.23;100.00;101288.22;5018525;28;20077;-89
2023/09/11 02:08:32;;;;;;;42.50;27.63;;;;;;;21.17;100.00;101282.41;4994660;28;20069;-86
2023/09/11 02:10:58;;;;;;;37.33;25.25;;;;;;;21.10;100.00;101286.75;4993985;28;20413;-90
2023/09/11 02:13:24;;;;;;;30.70;20.45;;;;;;;21.05;100.00;101290.94;4999821;28;20033;-90
2023/09/11 02:15:49;;;;;;;29.98;22.33;;;;;;;21.06;100.00;101287.22;5010658;28;20044;-90
2023/09/11 02:18:15;;;;;;;29.65;22.85;;;;;;;21.00;100.00;101288.69;5011304;28;20049;-87
2023/09/11 02:20:41;;;;;;;31.85;25.88;;;;;;;20.99;100.00;101288.84;5031618;28;20327;-89
2023/09/11 02:23:06;;;;;;;39.22;25.55;;;;;;;20.99;100.00;101289.69;5031950;28;20546;-89
2023/09/11 02:25:32;;;;;;;36.13;25.92;;;;;;;20.97;100.00;101272.72;5007740;28;20622;-87
2023/09/11 02:28:00;;;;;;;34.38;26.42;;;;;;;20.99;100.00;101275.28;5021411;28;20096;-88
2023/09/11 02:30:26;;;;;;;40.40;29.85;;;;;;;20.98;100.00;101276.28;5023465;28;20038;-87
2023/09/11 02:32:52;;;;;;;42.05;32.58;;;;;;;21.00;100.00;101277.84;5016845;28;20601;-89
2023/09/11 02:35:17;;;;;;;37.13;27.13;;;;;;;20.94;100.00;101271.19;5009840;28;20044;-89
2023/09/11 02:37:43;;;;;;;33.33;26.33;;;;;;;21.00;100.00;101274.28;5025864;28;20651;-89
2023/09/11 02:40:10;;;;;;;39.83;29.13;;;;;;;21.05;100.00;101271.97;5023161;28;20033;-90
2023/09/11 02:42:36;;;;;;;46.70;31.67;;;;;;;21.03;100.00;101268.53;5021989;28;20057;-90
2023/09/11 02:45:02;;;;;;;40.88;28.90;;;;;;;20.97;100.00;101270.00;5020562;28;20096;-90
2023/09/11 02:47:27;;;;;;;43.33;30.75;;;;;;;20.94;100.00;101270.34;5028018;28;20037;-91
2023/09/11 02:49:53;;;;;;;36.95;28.35;;;;;;;20.86;100.00;101265.66;5026917;28;20037;-91
2023/09/11 02:52:19;;;;;;;34.38;24.80;;;;;;;20.74;100.00;101260.63;5027103;28;20034;-89
2023/09/11 02:54:45;;;;;;;30.60;22.67;;;;;;;20.72;100.00;101262.63;5024572;28;20713;-89
2023/09/11 02:57:10;;;;;;;35.70;28.77;;;;;;;20.80;100.00;101260.88;4989594;28;20093;-88
2023/09/11 02:59:37;;;;;;;35.03;25.70;;;;;;;20.83;100.00;101260.53;4999872;28;20049;-89
2023/09/11 03:02:03;;;;;;;34.88;24.38;;;;;;;20.81;100.00;101261.72;5006908;28;20045;-88
2023/09/11 03:04:30;;;;;;;39.08;27.63;;;;;;;20.78;100.00;101254.72;5025602;28;20056;-90
2023/09/11 03:06:56;;;;;;;40.33;27.85;;;;;;;20.80;100.00;101258.16;5049247;28;20076;-89
2023/09/11 03:09:21;;;;;;;35.10;29.05;;;;;;;20.78;100.00;101246.59;5028053;28;20045;-90
2023/09/11 03:11:47;;;;;;;41.67;27.70;;;;;;;20.80;100.00;101244.59;5031948;28;20044;-89
2023/09/11 03:14:13;;;;;;;35.42;25.95;;;;;;;20.73;100.00;101237.22;5033168;28;20073;-89
2023/09/11 03:16:43;;;;;;;31.42;24.58;;;;;;;20.65;100.00;101240.72;5026096;28;20064;-90
2023/09/11 03:19:12;;;;;;;33.05;26.98;;;;;;;20.66;100.00;101234.28;4996958;28;20057;-90
2023/09/11 03:21:38;;;;;;;44.05;27.23;;;;;;;20.72;100.00;101232.81;5030324;28;20137;-91
2023/09/11 03:24:04;;;;;;;36.25;28.08;;;;;;;20.63;100.00;101231.88;5011050;28;20037;-90
2023/09/11 03:26:30;;;;;;;38.60;26.83;;;;;;;20.59;100.00;101234.03;4991675;28;20693;-90
2023/09/11 03:28:56;;;;;;;35.08;27.23;;;;;;;20.60;100.00;101230.31;4989671;28;20045;-87
2023/09/11 03:31:26;;;;;;;35.35;27.55;;;;;;;20.57;100.00;101240.59;4992309;28;20038;-89
2023/09/11 03:33:52;;;;;;;37.55;25.92;;;;;;;20.53;100.00;101234.63;4988067;28;20081;-87
2023/09/11 03:36:18;;;;;;;37.83;27.85;;;;;;;20.47;100.00;101231.69;4993291;28;20486;-89
2023/09/11 03:38:44;;;;;;;36.63;28.30;;;;;;;20.54;100.00;101230.09;4993628;28;20040;-90
2023/09/11 03:41:11;;;;;;;39.22;31.50;;;;;;;20.48;100.00;101231.53;5007484;28;20056;-88
2023/09/11 03:43:37;;;;;;;39.75;27.70;;;;;;;20.35;100.00;101229.16;4991764;28;20026;-88
2023/09/11 03:46:02;;;;;;;34.22;25.45;;;;;;;20.37;100.00;101227.16;4989855;28;20050;-88
2023/09/11 03:48:32;;;;;;;37.25;27.50;;;;;;;20.36;100.00;101221.88;5019695;28;20046;-90
2023/09/11 03:50:58;;;;;;;29.08;24.77;;;;;;;20.43;100.00;101217.56;4989074;28;20049;-87
2023/09/11 03:53:26;;;;;;;27.45;22.13;;;;;;;20.32;100.00;101215.06;4991247;28;20471;-87
2023/09/11 03:55:52;;;;;;;32.45;26.05;;;;;;;20.30;100.00;101209.81;5010821;28;20090;-89
2023/09/11 03:58:19;;;;;;;29.45;24.77;;;;;;;20.30;100.00;101217.09;5026545;28;20030;-89
2023/09/11 04:00:45;;;;;;;33.78;25.55;;;;;;;20.26;100.00;101215.66;5004687;28;20675;-87
2023/09/11 04:03:10;;;;;;;28.10;25.17;;;;;;;20.28;100.00;101208.25;5012022;28;20102;-89
2023/09/11 04:05:36;;;;;;;31.08;25.95;;;;;;;20.29;100.00;101207.25;5009688;28;20723;-88
2023/09/11 04:08:02;;;;;;;26.48;23.58;;;;;;;20.21;100.00;101193.59;5006167;28;20405;-87
2023/09/11 04:10:28;;;;;;;36.67;26.42;;;;;;;20.18;100.00;101201.03;4984791;28;20982;-88
2023/09/11 04:12:54;;;;;;;33.28;26.77;;;;;;;20.15;100.00;101198.63;4988858;28;20041;-86
2023/09/11 04:15:19;;;;;;;35.20;28.40;;;;;;;20.15;100.00;101203.19;5010240;28;20034;-88
2023/09/11 04:17:45;;;;;;;39.95;28.42;;;;;;;20.13;100.00;101197.94;5005271;28;21114;-86
2023/09/11 04:20:11;;;;;;;34.13;27.25;;;;;;;20.13;100.00;101202.47;5007345;28;20050;-88
2023/09/11 04:22:37;;;;;;;38.00;26.65;;;;;;;20.09;100.00;101199.22;5006784;28;20093;-88
2023/09/11 04:25:03;;;;;;;30.17;24.90;;;;;;;20.06;100.00;101195.97;5015456;28;20038;-88
2023/09/11 04:27:29;;;;;;;26.55;22.05;;;;;;;20.03;100.00;101198.97;5010590;28;20097;-87
2023/09/11 04:29:56;;;;;;;26.73;20.63;;;;;;;20.00;100.00;101193.88;5017487;28;20033;-86
2023/09/11 04:32:22;;;;;;;21.35;19.15;;;;;;;19.92;100.00;101198.16;5009410;28;20034;-87
2023/09/11 04:34:49;;;;;;;25.20;21.58;;;;;;;19.94;100.00;101203.44;5026850;28;20100;-88
2023/09/11 04:37:17;;;;;;;46.67;22.52;;;;;;;19.84;100.00;101200.78;5027779;28;20056;-87
2023/09/11 04:39:43;;;;;;;25.40;22.55;;;;;;;19.82;100.00;101193.78;5043514;28;20633;-87
2023/09/11 04:42:09;;;;;;;20.83;18.42;;;;;;;19.81;100.00;101194.78;5029332;28;20631;-86
2023/09/11 04:44:35;;;;;;;23.75;18.90;;;;;;;19.83;100.00;101190.94;5019881;28;20768;-87
2023/09/11 04:47:00;;;;;;;19.80;17.48;;;;;;;19.78;100.00;101192.38;5024694;28;20042;-87
2023/09/11 04:49:26;;;;;;;25.05;15.75;;;;;;;19.79;100.00;101191.41;5028532;28;20034;-88
2023/09/11 04:51:52;;;;;;;22.23;19.83;;;;;;;19.79;100.00;101194.94;5019909;28;20025;-88
2023/09/11 04:54:19;;;;;;;26.42;20.52;;;;;;;19.75;100.00;101193.53;5027834;28;20069;-88
2023/09/11 04:56:47;;;;;;;20.10;17.52;;;;;;;19.74;100.00;101183.72;5013826;28;20041;-87
2023/09/11 04:59:14;;;;;;;22.85;18.50;;;;;;;19.76;100.00;101187.13;5022286;28;20099;-87
2023/09/11 05:01:40;;;;;;;18.02;15.68;;;;;;;19.72;100.00;101176.72;5019668;28;20060;-87
2023/09/11 05:04:06;;;;;;;27.42;21.75;;;;;;;19.76;100.00;101186.25;5025006;28;20045;-87
2023/09/11 05:06:32;;;;;;;24.40;20.88;;;;;;;19.80;100.00;101187.69;5027076;28;20045;-88
2023/09/11 05:08:59;;;;;;;32.17;23.48;;;;;;;19.84;100.00;101183.69;5027217;28;20038;-86
2023/09/11 05:11:26;;;;;;;28.60;21.75;;;;;;;19.82;100.00;101182.97;5028297;28;20068;-86
2023/09/11 05:13:52;;;;;;;30.73;21.85;;;;;;;19.85;100.00;101188.09;5015877;28;20196;-88
2023/09/11 05:16:19;;;;;;;31.63;22.52;;;;;;;19.91;100.00;101182.06;5039515;28;20037;-87
2023/09/11 05:18:45;;;;;;;28.00;21.20;;;;;;;19.95;100.00;101188.03;5023203;28;20042;-87
2023/09/11 05:21:11;;;;;;;37.25;24.75;;;;;;;19.98;100.00;101177.78;5036484;28;20145;-88
2023/09/11 05:23:37;;;;;;;34.75;26.20;;;;;;;20.06;100.00;101179.72;5019262;28;20034;-87
2023/09/11 05:26:03;;;;;;;31.20;24.70;;;;;;;20.06;100.00;101180.56;5012211;28;20045;-86
2023/09/11 05:28:29;;;;;;;37.40;28.63;;;;;;;20.08;100.00;101183.13;5033974;28;20129;-86
2023/09/11 05:30:55;;;;;;;39.58;27.95;;;;;;;20.11;100.00;101180.13;5032605;28;20080;-90
2023/09/11 05:33:21;;;;;;;35.58;27.08;;;;;;;20.18;100.00;101179.38;5037622;28;20105;-88
2023/09/11 05:35:47;;;;;;;42.30;31.83;;;;;;;20.25;100.00;101176.91;5058654;28;20508;-90
2023/09/11 05:38:13;;;;;;;36.10;29.17;;;;;;;20.34;100.00;101178.72;5022920;28;20048;-87
2023/09/11 05:40:38;;;;;;;40.20;29.25;;;;;;;20.45;100.00;101183.06;5043858;28;20068;-89
2023/09/11 05:43:04;;;;;;;44.33;29.30;;;;;;;20.55;100.00;101181.16;5036457;28;20093;-87
2023/09/11 05:45:30;;;;;;;46.22;30.02;;;;;;;20.65;100.00;101181.09;5020504;28;20049;-86
2023/09/11 05:47:55;;;;;;;44.55;32.20;;;;;;;20.74;100.00;101188.28;5043933;28;20046;-86
2023/09/11 05:50:21;;;;;;;42.00;29.45;;;;;;;20.81;100.00;101202.91;5039627;28;20048;-88
2023/09/11 05:52:47;;;;;;;42.53;31.88;;;;;;;20.89;100.00;101204.88;5061600;28;20076;-88
2023/09/11 05:55:13;;;;;;;42.65;33.00;;;;;;;20.92;100.00;101199.97;5020394;28;20037;-86
2023/09/11 05:57:38;;;;;;;49.67;35.97;;;;;;;20.96;100.00;101195.09;5028467;28;20033;-91
2023/09/11 06:00:12;;;;;;;52.05;37.05;;;;;;;21.00;100.00;101206.50;5018664;28;20132;-89
2023/09/11 06:02:40;;;;;;;49.13;36.03;;;;;;;21.00;100.00;101199.19;5037815;28;20040;-87
2023/09/11 06:05:07;;;;;;;48.20;33.55;;;;;;;21.08;100.00;101206.53;5049205;28;20022;-87
2023/09/11 06:07:32;;;;;;;51.35;36.03;;;;;;;21.12;100.00;101206.06;5047137;28;20045;-88
2023/09/11 06:09:59;;;;;;;51.85;35.22;;;;;;;21.21;100.00;101205.13;5030753;28;20078;-88
2023/09/11 06:12:29;;;;;;;44.60;36.47;;;;;;;21.27;100.00;101211.78;5050112;28;20030;-89
2023/09/11 06:14:56;;;;;;;41.03;32.45;;;;;;;21.38;100.00;101206.13;5040716;28;20060;-88
2023/09/11 06:17:22;;;;;;;50.53;34.65;;;;;;;21.49;100.00;101205.03;5044248;28;20077;-86
2023/09/11 06:19:48;;;;;;;51.03;38.20;;;;;;;21.49;100.00;101205.03;5033490;28;20033;-87
2023/09/11 06:22:13;;;;;;;49.05;37.42;;;;;;;21.49;100.00;101204.16;5034921;28;20021;-87
2023/09/11 06:24:42;;;;;;;44.85;36.50;;;;;;;21.59;100.00;101202.22;5040140;28;20157;-87
2023/09/11 06:27:08;;;;;;;48.30;34.85;;;;;;;21.68;100.00;101207.50;5030826;28;20131;-87
2023/09/11 06:29:34;;;;;;;46.20;35.10;;;;;;;21.77;100.00;101203.00;5030355;28;20188;-88
2023/09/11 06:32:00;;;;;;;47.70;37.97;;;;;;;21.88;100.00;101205.41;5034175;28;20050;-87
2023/09/11 06:34:29;;;;;;;45.63;32.60;;;;;;;21.97;100.00;101201.75;5034125;28;20065;-87
2023/09/11 06:36:58;;;;;;;44.88;33.63;;;;;;;22.16;100.00;101202.53;5039552;28;20076;-87
2023/09/11 06:39:26;;;;;;;46.78;32.60;;;;;;;22.28;100.00;101200.38;5041305;28;20068;-89
2023/09/11 06:41:52;;;;;;;48.40;33.72;;;;;;;22.50;100.00;101197.03;5025077;28;20482;-88
2023/09/11 06:44:18;;;;;;;41.42;30.58;;;;;;;22.70;100.00;101203.88;5034060;28;20037;-87
2023/09/11 06:46:44;;;;;;;36.85;27.25;;;;;;;22.96;100.00;101195.59;5011590;28;20049;-88
2023/09/11 06:49:10;;;;;;;43.80;27.33;;;;;;;23.20;100.00;101200.22;5029428;28;20184;-87
2023/09/11 06:51:36;;;;;;;38.40;25.85;;;;;;;23.37;100.00;101195.59;5030270;28;20494;-89
2023/09/11 06:54:03;;;;;;;40.35;27.90;;;;;;;23.52;100.00;101187.56;5009311;28;20065;-89
2023/09/11 06:56:31;;;;;;;36.03;26.80;;;;;;;23.73;100.00;101192.47;5043105;28;20069;-88
2023/09/11 06:58:57;;;;;;;41.28;26.05;;;;;;;23.71;100.00;101189.94;5028320;28;20033;-90
2023/09/11 07:01:24;;;;;;;39.47;25.00;;;;;;;23.83;100.00;101184.97;5011230;28;20041;-86
2023/09/11 07:03:49;;;;;;;31.95;22.98;;;;;;;24.03;100.00;101182.66;5010288;28;20041;-88
2023/09/11 07:06:15;;;;;;;35.67;24.27;;;;;;;24.09;100.00;101178.38;5038761;28;20045;-87
2023/09/11 07:08:41;;;;;;;32.42;23.00;;;;;;;24.21;100.00;101175.09;5028727;28;20156;-89
2023/09/11 07:11:06;;;;;;;34.10;22.00;;;;;;;24.15;100.00;101173.09;5026732;28;20042;-87
2023/09/11 07:13:33;;;;;;;34.47;21.90;;;;;;;24.29;100.00;101174.19;5019828;28;20089;-88
2023/09/11 07:16:00;;;;;;;31.20;22.15;;;;;;;24.33;100.00;101181.00;5025922;28;20041;-89
2023/09/11 07:18:26;;;;;;;27.90;20.40;;;;;;;24.25;100.00;101171.00;5034140;28;20117;-87
2023/09/11 07:20:54;;;;;;;29.05;20.95;;;;;;;24.31;100.00;101179.47;5021839;28;20044;-87
2023/09/11 07:23:20;;;;;;;29.77;19.95;;;;;;;24.61;100.00;101173.19;5015998;28;20481;-87
2023/09/11 07:25:47;;;;;;;31.58;19.98;;;;;;;24.86;100.00;101176.59;5001567;28;20029;-88
2023/09/11 07:28:13;;;;;;;35.28;23.30;;;;;;;24.81;100.00;101173.56;5009766;28;20042;-89
2023/09/11 07:30:39;;;;;;;32.70;22.88;;;;;;;24.99;100.00;101174.06;5034579;28;20946;-87
2023/09/11 07:33:05;;;;;;;32.28;22.80;;;;;;;25.03;100.00;101180.03;5022497;28;20034;-88
2023/09/11 07:35:31;;;;;;;36.97;23.80;;;;;;;24.73;100.00;101174.47;5021782;28;20047;-87
2023/09/11 07:37:57;;;;;;;39.05;24.60;;;;;;;24.72;100.00;101175.50;5027187;28;20021;-90
2023/09/11 07:40:23;;;;;;;32.35;23.92;;;;;;;24.92;100.00;101184.03;5024642;28;20038;-87
2023/09/11 07:42:50;;;;;;;34.72;24.38;;;;;;;25.10;100.00;101175.53;5001242;28;20228;-89
2023/09/11 07:45:15;;;;;;;33.75;23.92;;;;;;;25.42;100.00;101170.81;5022638;28;20033;-87
2023/09/11 07:47:41;;;;;;;31.85;22.52;;;;;;;25.61;100.00;101174.91;5006374;28;20033;-89
2023/09/11 07:50:08;;;;;;;28.85;20.70;;;;;;;25.71;100.00;101170.84;5023667;28;20041;-90
2023/09/11 07:52:35;;;;;;;27.27;20.15;;;;;;;26.04;98.27;101171.31;4996151;28;20092;-86
2023/09/11 07:55:01;;;;;;;33.08;19.27;;;;;;;25.95;94.24;101166.13;5001778;28;20037;-86
2023/09/11 07:57:26;;;;;;;26.58;17.13;;;;;;;26.28;90.48;101172.03;5016371;28;20029;-88
2023/09/11 07:59:52;;;;;;;25.48;18.08;;;;;;;26.29;89.54;101171.84;5022391;28;20045;-90
2023/09/11 08:02:18;;;;;;;23.35;17.02;;;;;;;26.80;87.81;101176.41;5021281;28;20042;-89
2023/09/11 08:04:43;;;;;;;26.50;18.63;;;;;;;26.54;84.15;101180.56;5005976;28;20045;-90
2023/09/11 08:07:12;;;;;;;24.70;17.48;;;;;;;26.95;84.65;101181.81;5015492;28;20080;-86
2023/09/11 08:09:38;;;;;;;31.17;19.83;;;;;;;26.99;83.39;101178.50;5023328;28;20184;-87
2023/09/11 08:12:03;;;;;;;28.50;18.17;;;;;;;26.90;84.28;101173.34;5040391;28;20042;-88
2023/09/11 08:14:32;;;;;;;28.02;19.05;;;;;;;26.65;87.10;101176.47;5041496;28;20033;-87
2023/09/11 08:16:58;;;;;;;27.67;18.95;;;;;;;26.50;88.32;101181.16;5015461;28;20025;-88
2023/09/11 08:19:26;;;;;;;26.40;18.17;;;;;;;26.46;88.63;101174.41;5021942;28;20482;-88
2023/09/11 08:21:54;;;;;;;26.20;18.60;;;;;;;26.47;87.40;101173.34;5006888;28;20112;-90
2023/09/11 08:24:20;;;;;;;26.00;19.30;;;;;;;26.37;86.06;101162.69;5011668;28;20520;-88
2023/09/11 08:26:46;;;;;;;27.45;18.42;;;;;;;26.30;87.71;101169.94;5017422;28;20042;-86
2023/09/11 08:29:14;;;;;;;30.80;19.20;;;;;;;26.31;89.45;101172.50;5009773;28;20093;-88
2023/09/11 08:31:41;;;;;;;30.15;19.42;;;;;;;26.21;89.15;101174.69;5024268;28;20145;-89
2023/09/11 08:34:07;;;;;;;31.75;19.15;;;;;;;26.23;90.64;101178.09;5024898;28;20030;-87
2023/09/11 08:36:33;;;;;;;33.28;20.08;;;;;;;26.17;89.38;101178.84;4995973;28;20033;-92
2023/09/11 08:38:59;;;;;;;27.42;18.23;;;;;;;26.27;90.98;101181.28;5008829;28;20045;-88
2023/09/11 08:41:26;;;;;;;29.05;19.27;;;;;;;26.32;88.94;101182.41;4996256;28;20049;-88
2023/09/11 08:43:52;;;;;;;31.15;19.75;;;;;;;26.38;88.77;101190.88;5018946;28;20069;-89
2023/09/11 08:46:18;;;;;;;35.45;19.30;;;;;;;26.47;87.60;101179.66;5018627;28;20094;-88
2023/09/11 08:48:49;;;;;;;34.70;20.60;;;;;;;26.40;86.60;101184.16;5007826;28;20072;-89
2023/09/11 08:51:22;;;;;;;33.50;20.25;;;;;;;26.55;87.58;101182.25;5020031;28;20042;-86
2023/09/11 08:53:54;;;;;;;29.45;20.50;;;;;;;26.67;85.99;101190.81;5024149;28;20076;-88
2023/09/11 08:56:20;;;;;;;30.38;18.80;;;;;;;26.79;86.60;101185.66;5003505;28;20038;-88
2023/09/11 08:58:50;;;;;;;30.60;20.98;;;;;;;26.82;86.99;101188.88;5023404;28;20033;-90
2023/09/11 09:01:16;;;;;;;38.17;21.77;;;;;;;26.75;86.23;101185.22;5007555;28;20649;-88
2023/09/11 09:03:43;;;;;;;39.28;22.38;;;;;;;26.64;86.14;101187.63;5034220;28;20041;-87
2023/09/11 09:06:12;;;;;;;36.70;21.90;;;;;;;26.66;87.42;101193.72;5025102;28;20614;-92
2023/09/11 09:08:38;;;;;;;31.83;21.13;;;;;;;26.83;89.03;101193.28;5012004;28;20503;-92
2023/09/11 09:11:04;;;;;;;29.55;20.23;;;;;;;26.88;89.35;101189.97;5005301;28;20044;-91
2023/09/11 09:13:37;;;;;;;32.53;20.52;;;;;;;26.71;87.44;101189.41;5003434;28;20039;-90
2023/09/11 09:16:05;;;;;;;31.27;22.23;;;;;;;26.95;86.60;101193.63;5024401;28;20044;-89
2023/09/11 09:18:31;;;;;;;31.48;22.48;;;;;;;26.93;85.90;101198.44;5005130;28;20359;-87
2023/09/11 09:20:56;;;;;;;28.80;21.05;;;;;;;27.02;87.02;101194.53;5006127;28;20061;-87
2023/09/11 09:23:35;;;;;;;32.05;20.95;;;;;;;27.03;86.56;101193.50;5018087;28;20092;-89
2023/09/11 09:26:09;;;;;;;31.52;20.00;;;;;;;27.29;87.54;101200.28;5040213;28;20582;-87
2023/09/11 09:28:51;;;;;;;30.15;19.08;;;;;;;27.31;87.28;101199.03;5021071;28;20053;-88
2023/09/11 09:31:25;;;;;;;37.80;19.90;;;;;;;27.21;83.82;101195.78;5018161;28;20033;-90
2023/09/11 09:33:55;;;;;;;29.58;20.95;;;;;;;27.16;85.97;101191.94;5035128;28;20030;-89
2023/09/11 09:36:23;;;;;;;26.88;18.48;;;;;;;27.44;85.49;101190.06;5003504;28;20038;-86
2023/09/11 09:38:50;;;;;;;32.08;21.27;;;;;;;27.53;80.49;101188.88;5009062;28;20033;-88
2023/09/11 09:41:20;;;;;;;30.40;19.08;;;;;;;27.60;81.26;101189.75;5021730;28;20038;-88
2023/09/11 09:43:55;;;;;;;27.10;20.73;;;;;;;27.61;79.38;101187.84;5034878;28;20034;-88
2023/09/11 09:46:22;;;;;;;32.55;20.77;;;;;;;27.69;78.99;101182.22;5032706;28;20092;-89
2023/09/11 09:48:48;;;;;;;30.65;20.42;;;;;;;27.75;82.32;101189.66;5042422;28;20033;-92
2023/09/11 09:51:15;;;;;;;28.20;20.88;;;;;;;27.78;81.91;101183.78;5018215;28;20136;-88
2023/09/11 09:53:41;;;;;;;40.60;21.90;;;;;;;27.72;80.72;101181.03;5005503;28;20045;-87
2023/09/11 09:56:09;;;;;;;36.67;20.52;;;;;;;27.89;79.73;101171.41;5017484;28;20037;-87
2023/09/11 09:58:55;;;;;;;35.45;21.55;;;;;;;27.95;81.40;101176.06;5007536;28;20041;-93
2023/09/11 10:01:20;;;;;;;34.72;21.63;;;;;;;27.98;79.03;101163.88;5013930;28;20128;-90
2023/09/11 10:03:48;;;;;;;34.03;20.55;;;;;;;28.06;79.79;101164.53;5017823;28;20108;-88
2023/09/11 10:06:23;;;;;;;37.83;22.60;;;;;;;28.13;79.55;101156.34;5020163;28;20049;-87
2023/09/11 10:09:10;;;;;;;28.88;20.40;;;;;;;28.24;79.47;101161.22;5018421;28;20030;-86
2023/09/11 10:11:41;;;;;;;30.88;21.30;;;;;;;28.10;76.61;101154.00;5015397;28;20030;-89
2023/09/11 10:14:09;;;;;;;30.50;19.60;;;;;;;28.10;76.46;101159.47;5021647;28;21053;-88
2023/09/11 10:16:35;;;;;;;28.98;18.30;;;;;;;28.22;76.59;101166.06;5003944;28;20413;-91
2023/09/11 10:19:02;;;;;;;26.35;19.52;;;;;;;28.17;78.59;101160.38;5035208;28;20147;-90
2023/09/11 10:21:28;;;;;;;36.70;18.63;;;;;;;28.25;77.45;101162.06;5019389;28;20107;-87
2023/09/11 10:23:55;;;;;;;28.80;19.48;;;;;;;28.13;76.66;101164.56;5042497;28;20060;-90
2023/09/11 10:26:29;;;;;;;29.80;19.67;;;;;;;28.28;75.35;101157.03;5040680;28;20058;-90
2023/09/11 10:29:00;;;;;;;40.28;21.88;;;;;;;28.12;75.21;101158.22;5021161;28;20033;-86
2023/09/11 10:31:32;;;;;;;33.40;20.63;;;;;;;28.21;74.33;101156.13;5022011;28;20043;-88
2023/09/11 10:34:02;;;;;;;32.97;18.20;;;;;;;28.24;74.04;101152.16;5001435;28;20401;-88
2023/09/11 10:36:37;;;;;;;46.28;21.33;;;;;;;28.27;74.08;101155.34;5025487;28;20068;-89
2023/09/11 10:39:06;;;;;;;32.47;19.52;;;;;;;28.34;75.53;101155.38;5028231;28;20025;-87
2023/09/11 10:41:35;;;;;;;30.25;19.73;;;;;;;28.46;75.52;101156.44;5008941;28;20041;-89
2023/09/11 10:44:00;;;;;;;34.30;21.20;;;;;;;28.34;76.48;101158.97;5017535;28;20558;-88
2023/09/11 10:46:39;;;;;;;29.73;19.48;;;;;;;28.45;74.75;101160.25;5004050;28;20041;-87
2023/09/11 10:49:27;;;;;;;35.70;20.23;;;;;;;28.52;74.79;101154.81;5038578;28;22246;-88
2023/09/11 10:51:53;;;;;;;33.95;18.17;;;;;;;28.54;75.21;101150.78;5006671;28;20088;-87
2023/09/11 10:54:23;;;;;;;24.33;16.60;;;;;;;28.60;73.21;101160.09;5005733;28;20054;-88
2023/09/11 10:56:50;;;;;;;27.65;15.48;;;;;;;28.55;69.40;101154.38;5018116;28;20044;-90
2023/09/11 10:59:19;;;;;;;35.15;16.73;;;;;;;28.68;68.92;101150.81;5007488;28;20087;-90
2023/09/11 11:01:46;;;;;;;20.02;14.05;;;;;;;28.69;70.69;101149.75;5019680;28;20052;-89
2023/09/11 11:04:15;;;;;;;24.75;16.30;;;;;;;28.65;70.13;101146.56;5042721;28;20037;-89